createdAt,value
2023-02-12T00:01:10.551Z,6.36
2023-02-12T00:06:14.812Z,6.42
2023-02-12T00:11:20.228Z,6.48
2023-02-12T00:16:24.906Z,6.55
2023-02-12T00:21:26.976Z,6.61
2023-02-12T00:26:28.741Z,6.61
2023-02-12T00:31:31.849Z,6.62
2023-02-12T00:36:33.844Z,6.62
2023-02-12T00:41:35.486Z,6.69
2023-02-12T00:46:37.309Z,6.69
2023-02-12T00:51:38.987Z,6.61
2023-02-12T00:56:41.189Z,6.65
2023-02-12T01:01:42.804Z,6.60
2023-02-12T01:06:44.881Z,6.60
2023-02-12T01:11:46.796Z,6.61
2023-02-12T01:16:48.452Z,6.60
2023-02-12T01:21:50.374Z,6.54
2023-02-12T01:26:53.944Z,6.58
2023-02-12T01:31:56.356Z,6.62
2023-02-12T01:36:58.064Z,6.60
2023-02-12T01:41:59.802Z,6.52
2023-02-12T01:47:04.224Z,6.50
2023-02-12T01:52:20.226Z,6.48
2023-02-12T01:57:23.654Z,6.44
2023-02-12T02:02:25.724Z,6.44
2023-02-12T02:07:27.502Z,6.39
2023-02-12T02:12:49.529Z,6.31
2023-02-12T02:17:55.476Z,6.30
2023-02-12T02:23:09.655Z,6.37
2023-02-12T02:28:30.937Z,6.38
2023-02-12T02:33:53.923Z,6.38
2023-02-12T02:39:11.898Z,6.35
2023-02-12T02:44:18.573Z,6.29
2023-02-12T02:49:25.364Z,6.32
2023-02-12T02:54:35.973Z,6.36
2023-02-12T02:59:43.771Z,6.34
2023-02-12T03:05:17.774Z,6.31
2023-02-12T03:10:26.377Z,6.31
2023-02-12T03:15:37.846Z,6.30
2023-02-12T03:20:49.490Z,6.27
2023-02-12T03:25:57.889Z,6.23
2023-02-12T03:31:06.382Z,6.19
2023-02-12T03:36:34.725Z,6.16
2023-02-12T03:41:44.932Z,6.10
2023-02-12T03:47:09.790Z,6.01
2023-02-12T03:52:11.433Z,5.93
2023-02-12T03:57:19.493Z,5.93
2023-02-12T04:02:21.301Z,5.85
2023-02-12T04:07:23.294Z,5.81
2023-02-12T04:12:44.115Z,5.85
2023-02-12T04:18:09.847Z,5.89
2023-02-12T04:23:48.430Z,5.87
2023-02-12T04:29:12.002Z,5.88
2023-02-12T04:34:43.230Z,5.93
2023-02-12T04:39:46.174Z,5.96
2023-02-12T04:44:48.186Z,5.94
2023-02-12T04:49:49.818Z,6.01
2023-02-12T04:54:51.438Z,6.00
2023-02-12T04:59:53.015Z,6.06
2023-02-12T05:04:55.273Z,6.14
2023-02-12T05:09:58.064Z,6.20
2023-02-12T05:14:59.731Z,6.19
2023-02-12T05:20:01.430Z,6.23
2023-02-12T05:25:03.334Z,6.30
2023-02-12T05:30:06.174Z,6.23
2023-02-12T05:35:08.446Z,6.21
2023-02-12T05:40:10.634Z,6.21
2023-02-12T05:45:12.372Z,6.26
2023-02-12T05:50:13.981Z,6.25
2023-02-12T05:55:15.636Z,6.26
2023-02-12T06:00:17.896Z,6.27
2023-02-12T06:05:19.609Z,6.27
2023-02-12T06:10:21.338Z,6.31
2023-02-12T06:15:22.985Z,6.32
2023-02-12T06:20:24.664Z,6.26
2023-02-12T06:25:26.253Z,6.26
2023-02-12T06:30:28.169Z,6.28
2023-02-12T06:35:29.856Z,6.26
2023-02-12T06:40:32.258Z,6.27
2023-02-12T06:45:34.873Z,6.25
2023-02-12T06:50:36.489Z,6.24
2023-02-12T06:55:38.146Z,6.28
2023-02-12T07:00:39.889Z,6.32
2023-02-12T07:05:41.855Z,6.32
2023-02-12T07:10:43.478Z,6.44
2023-02-12T07:15:45.222Z,6.38
2023-02-12T07:20:46.856Z,6.48
2023-02-12T07:25:59.612Z,6.58
2023-02-12T07:31:17.185Z,6.65
2023-02-12T07:36:20.092Z,6.67
2023-02-12T07:41:24.518Z,6.76
2023-02-12T07:46:32.379Z,6.91
2023-02-12T07:51:35.006Z,7.03
2023-02-12T07:56:39.038Z,7.02
2023-02-12T08:01:47.605Z,7.08
2023-02-12T08:06:51.149Z,7.29
2023-02-12T08:11:53.348Z,7.45
2023-02-12T08:16:55.209Z,7.49
2023-02-12T08:21:57.395Z,7.51
2023-02-12T08:26:59.303Z,7.56
2023-02-12T08:32:02.752Z,7.59
2023-02-12T08:37:05.830Z,7.50
2023-02-12T08:42:07.807Z,7.47
2023-02-12T08:47:10.185Z,7.46
2023-02-12T08:52:11.809Z,7.56
2023-02-12T08:57:13.527Z,7.66
2023-02-12T09:02:15.171Z,7.80
2023-02-12T09:07:16.838Z,7.86
2023-02-12T09:12:18.506Z,8.05
2023-02-12T09:17:20.185Z,7.99
2023-02-12T09:22:21.788Z,7.87
2023-02-12T09:27:23.641Z,7.94
2023-02-12T09:32:25.215Z,8.04
2023-02-12T09:37:26.820Z,8.24
2023-02-12T09:43:06.721Z,8.27
2023-02-12T09:48:08.516Z,8.17
2023-02-12T09:53:17.453Z,8.35
2023-02-12T09:58:36.747Z,8.60
2023-02-12T10:03:38.661Z,8.59
2023-02-12T10:09:07.337Z,8.63
2023-02-12T10:14:25.992Z,8.60
2023-02-12T10:19:27.585Z,8.63
2023-02-12T10:24:44.470Z,8.62
2023-02-12T10:29:47.413Z,8.77
2023-02-12T10:34:50.881Z,8.91
2023-02-12T10:40:00.222Z,9.14
2023-02-12T10:45:02.258Z,9.23
2023-02-12T10:50:21.866Z,9.36
2023-02-12T10:55:36.777Z,9.39
2023-02-12T11:00:39.031Z,9.63
2023-02-12T11:05:44.011Z,9.74
2023-02-12T11:10:45.616Z,9.84
2023-02-12T11:15:49.063Z,10.02
2023-02-12T11:20:54.676Z,10.05
2023-02-12T11:26:01.630Z,9.78
2023-02-12T11:31:12.379Z,9.73
2023-02-12T11:36:25.799Z,9.83
2023-02-12T11:41:39.875Z,10.10
2023-02-12T11:46:49.053Z,10.21
2023-02-12T11:51:51.167Z,10.52
2023-02-12T11:56:53.398Z,10.73
2023-02-12T12:01:59.051Z,10.92
2023-02-12T12:07:07.645Z,11.00
2023-02-12T12:12:34.843Z,10.62
2023-02-12T12:18:04.843Z,10.51
2023-02-12T12:23:17.288Z,11.04
2023-02-12T12:28:50.052Z,10.93
2023-02-12T12:34:00.688Z,10.68
2023-02-12T12:39:12.246Z,10.66
2023-02-12T12:44:19.629Z,10.62
2023-02-12T12:49:33.206Z,10.57
2023-02-12T12:54:52.344Z,10.48
2023-02-12T13:00:14.175Z,10.32
2023-02-12T13:05:21.865Z,10.23
2023-02-12T13:10:34.793Z,10.30
2023-02-12T13:15:48.241Z,10.15
2023-02-12T13:21:29.049Z,10.13
2023-02-12T13:26:45.481Z,10.27
2023-02-12T13:32:03.616Z,10.16
2023-02-12T13:37:10.549Z,10.31
2023-02-12T13:42:12.326Z,10.46
2023-02-12T13:47:30.155Z,10.44
2023-02-12T13:52:41.014Z,10.68
2023-02-12T13:57:42.929Z,10.70
2023-02-12T14:02:47.813Z,10.72
2023-02-12T14:07:55.458Z,10.78
2023-02-12T14:13:10.537Z,10.72
2023-02-12T14:18:21.781Z,11.05
2023-02-12T14:23:27.093Z,11.05
2023-02-12T14:28:47.360Z,10.91
2023-02-12T14:33:51.824Z,10.54
2023-02-12T14:39:16.245Z,10.15
2023-02-12T14:44:18.068Z,10.05
2023-02-12T14:49:42.474Z,9.99
2023-02-12T14:54:50.845Z,9.91
2023-02-12T14:59:56.607Z,9.88
2023-02-12T15:05:07.657Z,9.72
2023-02-12T15:10:44.489Z,9.68
2023-02-12T15:15:50.621Z,9.68
2023-02-12T15:21:00.651Z,9.47
2023-02-12T15:26:05.237Z,9.41
2023-02-12T15:31:10.890Z,9.38
2023-02-12T15:36:21.208Z,9.27
2023-02-12T15:41:31.882Z,9.11
2023-02-12T15:46:33.593Z,8.94
2023-02-12T15:51:41.647Z,8.79
2023-02-12T15:56:43.592Z,8.84
2023-02-12T16:02:03.513Z,8.76
2023-02-12T16:07:07.739Z,8.63
2023-02-12T16:12:18.315Z,8.69
2023-02-12T16:17:28.289Z,8.69
2023-02-12T16:22:41.941Z,8.56
2023-02-12T16:27:56.169Z,8.44
2023-02-12T16:32:59.404Z,8.37
2023-02-12T16:38:33.048Z,8.34
2023-02-12T16:43:34.695Z,8.27
2023-02-12T16:48:48.896Z,8.20
2023-02-12T16:53:54.072Z,8.15
2023-02-12T16:59:00.521Z,8.07
2023-02-12T17:04:16.395Z,7.93
2023-02-12T17:09:18.083Z,7.94
2023-02-12T17:14:20.985Z,7.88
2023-02-12T17:19:22.885Z,7.84
2023-02-12T17:24:28.024Z,7.75
2023-02-12T17:29:30.739Z,7.68
2023-02-12T17:34:46.619Z,7.62
2023-02-12T17:39:49.945Z,7.59
2023-02-12T17:44:52.780Z,7.57
2023-02-12T17:49:54.609Z,7.51
2023-02-12T17:54:56.445Z,7.52
2023-02-12T17:59:58.516Z,7.33
2023-02-12T18:05:00.184Z,7.27
2023-02-12T18:10:02.108Z,7.26
2023-02-12T18:15:05.966Z,7.18
2023-02-12T18:20:09.639Z,7.22
2023-02-12T18:25:11.238Z,7.16
2023-02-12T18:30:14.521Z,7.19
2023-02-12T18:35:16.795Z,7.20
2023-02-12T18:40:18.580Z,7.08
2023-02-12T18:45:21.731Z,7.03
2023-02-12T18:50:23.507Z,6.86
2023-02-12T18:55:25.105Z,6.78
2023-02-12T19:00:26.889Z,6.73
2023-02-12T19:05:28.593Z,6.84
2023-02-12T19:10:30.738Z,6.89
2023-02-12T19:15:32.436Z,6.82
2023-02-12T19:20:34.155Z,6.85
2023-02-12T19:25:42.839Z,6.82
2023-02-12T19:30:44.657Z,6.68
2023-02-12T19:35:49.662Z,6.78
2023-02-12T19:40:51.313Z,6.79
2023-02-12T19:45:53.064Z,6.77
2023-02-12T19:50:55.146Z,6.73
2023-02-12T19:56:01.511Z,6.69
2023-02-12T20:01:14.059Z,6.66
2023-02-12T20:06:21.283Z,6.62
2023-02-12T20:11:25.729Z,6.59
2023-02-12T20:16:34.650Z,6.57
2023-02-12T20:21:38.133Z,6.51
2023-02-12T20:26:39.952Z,6.45
2023-02-12T20:31:43.568Z,6.37
2023-02-12T20:36:46.199Z,6.32
2023-02-12T20:41:48.703Z,6.25
2023-02-12T20:46:55.895Z,6.31
2023-02-12T20:51:58.729Z,6.32
2023-02-12T20:57:01.422Z,6.22
2023-02-12T21:02:03.221Z,6.15
2023-02-12T21:07:04.864Z,6.17
2023-02-12T21:12:06.604Z,6.09
2023-02-12T21:17:08.310Z,6.03
2023-02-12T21:22:10.156Z,6.02
2023-02-12T21:27:12.203Z,6.04
2023-02-12T21:32:14.175Z,6.08
2023-02-12T21:37:15.936Z,6.12
2023-02-12T21:42:17.584Z,6.01
2023-02-12T21:47:19.230Z,6.01
2023-02-12T21:52:21.080Z,6.06
2023-02-12T21:57:22.769Z,6.13
2023-02-12T22:02:24.407Z,6.12
2023-02-12T22:07:26.039Z,6.06
2023-02-12T22:12:32.251Z,6.01
2023-02-12T22:17:33.973Z,5.98
2023-02-12T22:22:35.733Z,5.92
2023-02-12T22:27:37.446Z,5.84
2023-02-12T22:32:39.126Z,5.76
2023-02-12T22:37:41.305Z,5.69
2023-02-12T22:42:42.915Z,5.65
2023-02-12T22:47:44.809Z,5.53
2023-02-12T22:52:46.451Z,5.54
2023-02-12T22:57:48.292Z,5.45
2023-02-12T23:02:50.109Z,5.38
2023-02-12T23:07:52.004Z,5.38
2023-02-12T23:12:53.828Z,5.35
2023-02-12T23:17:55.640Z,5.40
2023-02-12T23:22:57.287Z,5.30
2023-02-12T23:27:59.030Z,5.18
2023-02-12T23:33:00.777Z,5.13
2023-02-12T23:38:04.398Z,5.03
2023-02-12T23:43:06.473Z,4.99
2023-02-12T23:48:08.190Z,4.94
2023-02-12T23:53:11.065Z,4.89
2023-02-12T23:58:12.816Z,4.86
